sensor_id;sensor_type;location;lat;lon;timestamp;P1;durP1;ratioP1;P2;durP2;ratioP2
46767;SDS011;69007;48.978;18.066;2023-04-15T00:00:59;2.10;;;2.00;;
46767;SDS011;69007;48.978;18.066;2023-04-15T00:03:25;2.03;;;1.92;;
46767;SDS011;69007;48.978;18.066;2023-04-15T00:05:50;1.80;;;1.70;;
46767;SDS011;69007;48.978;18.066;2023-04-15T00:08:16;1.60;;;1.50;;
46767;SDS011;69007;48.978;18.066;2023-04-15T00:10:42;2.08;;;1.98;;
46767;SDS011;69007;48.978;18.066;2023-04-15T00:13:08;2.03;;;1.92;;
46767;SDS011;69007;48.978;18.066;2023-04-15T00:15:34;1.98;;;1.88;;
46767;SDS011;69007;48.978;18.066;2023-04-15T00:17:59;1.90;;;1.80;;
46767;SDS011;69007;48.978;18.066;2023-04-15T00:20:25;1.90;;;1.80;;
46767;SDS011;69007;48.978;18.066;2023-04-15T00:22:50;2.33;;;2.13;;
46767;SDS011;69007;48.978;18.066;2023-04-15T00:25:16;2.13;;;1.92;;
46767;SDS011;69007;48.978;18.066;2023-04-15T00:27:41;1.95;;;1.85;;
46767;SDS011;69007;48.978;18.066;2023-04-15T00:30:07;2.10;;;2.00;;
46767;SDS011;69007;48.978;18.066;2023-04-15T00:32:33;2.92;;;2.03;;
46767;SDS011;69007;48.978;18.066;2023-04-15T00:34:58;2.05;;;1.95;;
46767;SDS011;69007;48.978;18.066;2023-04-15T00:37:24;2.22;;;2.03;;
46767;SDS011;69007;48.978;18.066;2023-04-15T00:39:49;2.55;;;2.35;;
46767;SDS011;69007;48.978;18.066;2023-04-15T00:42:15;2.20;;;2.10;;
46767;SDS011;69007;48.978;18.066;2023-04-15T00:44:40;2.70;;;2.50;;
46767;SDS011;69007;48.978;18.066;2023-04-15T00:47:06;2.83;;;2.60;;
46767;SDS011;69007;48.978;18.066;2023-04-15T00:49:32;2.50;;;2.28;;
46767;SDS011;69007;48.978;18.066;2023-04-15T00:51:58;2.00;;;1.83;;
46767;SDS011;69007;48.978;18.066;2023-04-15T00:54:23;2.08;;;1.80;;
46767;SDS011;69007;48.978;18.066;2023-04-15T00:56:49;2.55;;;2.35;;
46767;SDS011;69007;48.978;18.066;2023-04-15T00:59:14;3.13;;;2.85;;
46767;SDS011;69007;48.978;18.066;2023-04-15T01:01:43;2.20;;;2.00;;
46767;SDS011;69007;48.978;18.066;2023-04-15T01:04:10;2.13;;;2.00;;
46767;SDS011;69007;48.978;18.066;2023-04-15T01:06:37;2.15;;;2.05;;
46767;SDS011;69007;48.978;18.066;2023-04-15T01:09:02;2.70;;;2.50;;
46767;SDS011;69007;48.978;18.066;2023-04-15T01:11:27;2.50;;;2.30;;
46767;SDS011;69007;48.978;18.066;2023-04-15T01:13:54;2.20;;;2.10;;
46767;SDS011;69007;48.978;18.066;2023-04-15T01:16:21;2.15;;;2.00;;
46767;SDS011;69007;48.978;18.066;2023-04-15T01:18:46;2.72;;;2.53;;
46767;SDS011;69007;48.978;18.066;2023-04-15T01:21:13;2.45;;;2.25;;
46767;SDS011;69007;48.978;18.066;2023-04-15T01:23:38;2.80;;;2.60;;
46767;SDS011;69007;48.978;18.066;2023-04-15T01:26:04;2.60;;;2.40;;
46767;SDS011;69007;48.978;18.066;2023-04-15T01:28:33;2.60;;;2.30;;
46767;SDS011;69007;48.978;18.066;2023-04-15T01:31:07;2.63;;;2.40;;
46767;SDS011;69007;48.978;18.066;2023-04-15T01:33:35;2.95;;;2.70;;
46767;SDS011;69007;48.978;18.066;2023-04-15T01:36:01;2.90;;;2.67;;
46767;SDS011;69007;48.978;18.066;2023-04-15T01:38:33;2.60;;;2.40;;
46767;SDS011;69007;48.978;18.066;2023-04-15T01:41:01;2.72;;;2.53;;
46767;SDS011;69007;48.978;18.066;2023-04-15T01:43:29;2.60;;;2.40;;
46767;SDS011;69007;48.978;18.066;2023-04-15T01:45:57;3.15;;;2.63;;
46767;SDS011;69007;48.978;18.066;2023-04-15T01:48:29;2.60;;;2.40;;
46767;SDS011;69007;48.978;18.066;2023-04-15T01:50:57;3.10;;;2.80;;
46767;SDS011;69007;48.978;18.066;2023-04-15T01:53:23;2.97;;;2.67;;
46767;SDS011;69007;48.978;18.066;2023-04-15T01:55:49;2.50;;;2.30;;
46767;SDS011;69007;48.978;18.066;2023-04-15T01:58:16;2.92;;;2.72;;
46767;SDS011;69007;48.978;18.066;2023-04-15T02:00:41;2.80;;;2.60;;
46767;SDS011;69007;48.978;18.066;2023-04-15T02:03:07;2.85;;;2.40;;
46767;SDS011;69007;48.978;18.066;2023-04-15T02:05:32;2.50;;;2.30;;
46767;SDS011;69007;48.978;18.066;2023-04-15T02:07:57;2.63;;;2.42;;
46767;SDS011;69007;48.978;18.066;2023-04-15T02:10:23;3.70;;;3.35;;
46767;SDS011;69007;48.978;18.066;2023-04-15T02:12:48;2.45;;;2.25;;
46767;SDS011;69007;48.978;18.066;2023-04-15T02:15:14;3.50;;;2.65;;
46767;SDS011;69007;48.978;18.066;2023-04-15T02:17:39;2.55;;;2.35;;
46767;SDS011;69007;48.978;18.066;2023-04-15T02:20:05;2.53;;;2.33;;
46767;SDS011;69007;48.978;18.066;2023-04-15T02:22:31;2.45;;;2.25;;
46767;SDS011;69007;48.978;18.066;2023-04-15T02:24:56;2.65;;;2.45;;
46767;SDS011;69007;48.978;18.066;2023-04-15T02:27:21;2.55;;;2.35;;
46767;SDS011;69007;48.978;18.066;2023-04-15T02:29:47;2.70;;;2.47;;
46767;SDS011;69007;48.978;18.066;2023-04-15T02:32:15;2.70;;;2.50;;
46767;SDS011;69007;48.978;18.066;2023-04-15T02:34:40;2.60;;;2.40;;
46767;SDS011;69007;48.978;18.066;2023-04-15T02:37:10;3.22;;;2.92;;
46767;SDS011;69007;48.978;18.066;2023-04-15T02:39:36;2.92;;;2.72;;
46767;SDS011;69007;48.978;18.066;2023-04-15T02:42:02;3.08;;;2.80;;
46767;SDS011;69007;48.978;18.066;2023-04-15T02:44:27;5.97;;;3.03;;
46767;SDS011;69007;48.978;18.066;2023-04-15T02:46:53;2.65;;;2.45;;
46767;SDS011;69007;48.978;18.066;2023-04-15T02:49:21;3.05;;;2.83;;
46767;SDS011;69007;48.978;18.066;2023-04-15T02:51:47;3.28;;;2.97;;
46767;SDS011;69007;48.978;18.066;2023-04-15T02:54:20;3.20;;;2.90;;
46767;SDS011;69007;48.978;18.066;2023-04-15T02:56:49;2.90;;;2.70;;
46767;SDS011;69007;48.978;18.066;2023-04-15T02:59:14;3.40;;;3.10;;
46767;SDS011;69007;48.978;18.066;2023-04-15T03:01:40;2.75;;;2.55;;
46767;SDS011;69007;48.978;18.066;2023-04-15T03:04:05;2.92;;;2.65;;
46767;SDS011;69007;48.978;18.066;2023-04-15T03:06:33;3.63;;;2.88;;
46767;SDS011;69007;48.978;18.066;2023-04-15T03:08:59;3.05;;;2.83;;
46767;SDS011;69007;48.978;18.066;2023-04-15T03:11:26;3.33;;;2.63;;
46767;SDS011;69007;48.978;18.066;2023-04-15T03:13:53;5.78;;;2.53;;
46767;SDS011;69007;48.978;18.066;2023-04-15T03:16:18;2.78;;;2.58;;
46767;SDS011;69007;48.978;18.066;2023-04-15T03:18:43;3.30;;;2.33;;
46767;SDS011;69007;48.978;18.066;2023-04-15T03:21:08;2.42;;;2.22;;
46767;SDS011;69007;48.978;18.066;2023-04-15T03:23:34;3.35;;;2.70;;
46767;SDS011;69007;48.978;18.066;2023-04-15T03:26:03;3.97;;;2.25;;
46767;SDS011;69007;48.978;18.066;2023-04-15T03:28:29;2.55;;;2.35;;
46767;SDS011;69007;48.978;18.066;2023-04-15T03:30:55;2.83;;;2.58;;
46767;SDS011;69007;48.978;18.066;2023-04-15T03:33:20;2.78;;;2.58;;
46767;SDS011;69007;48.978;18.066;2023-04-15T03:35:46;3.50;;;2.80;;
46767;SDS011;69007;48.978;18.066;2023-04-15T03:38:11;2.85;;;2.55;;
46767;SDS011;69007;48.978;18.066;2023-04-15T03:40:37;2.00;;;1.90;;
46767;SDS011;69007;48.978;18.066;2023-04-15T03:43:05;2.80;;;2.60;;
46767;SDS011;69007;48.978;18.066;2023-04-15T03:45:30;2.45;;;2.25;;
46767;SDS011;69007;48.978;18.066;2023-04-15T03:47:56;2.40;;;2.20;;
46767;SDS011;69007;48.978;18.066;2023-04-15T03:50:21;2.65;;;2.45;;
46767;SDS011;69007;48.978;18.066;2023-04-15T03:52:47;2.10;;;2.00;;
46767;SDS011;69007;48.978;18.066;2023-04-15T03:55:12;2.65;;;2.45;;
46767;SDS011;69007;48.978;18.066;2023-04-15T03:57:38;5.03;;;2.50;;
46767;SDS011;69007;48.978;18.066;2023-04-15T04:00:04;2.58;;;2.20;;
46767;SDS011;69007;48.978;18.066;2023-04-15T04:02:30;2.22;;;2.03;;
46767;SDS011;69007;48.978;18.066;2023-04-15T04:04:55;2.60;;;2.20;;
46767;SDS011;69007;48.978;18.066;2023-04-15T04:07:22;2.30;;;2.10;;
46767;SDS011;69007;48.978;18.066;2023-04-15T04:09:47;2.60;;;2.38;;
46767;SDS011;69007;48.978;18.066;2023-04-15T04:12:13;2.40;;;2.20;;
46767;SDS011;69007;48.978;18.066;2023-04-15T04:14:38;2.67;;;2.47;;
46767;SDS011;69007;48.978;18.066;2023-04-15T04:17:03;3.53;;;2.53;;
46767;SDS011;69007;48.978;18.066;2023-04-15T04:19:29;2.92;;;2.70;;
46767;SDS011;69007;48.978;18.066;2023-04-15T04:21:54;2.40;;;2.20;;
46767;SDS011;69007;48.978;18.066;2023-04-15T04:24:20;2.67;;;2.47;;
46767;SDS011;69007;48.978;18.066;2023-04-15T04:26:45;2.92;;;2.63;;
46767;SDS011;69007;48.978;18.066;2023-04-15T04:29:11;3.03;;;2.80;;
46767;SDS011;69007;48.978;18.066;2023-04-15T04:31:36;2.53;;;2.33;;
46767;SDS011;69007;48.978;18.066;2023-04-15T04:34:02;2.40;;;2.20;;
46767;SDS011;69007;48.978;18.066;2023-04-15T04:36:27;2.10;;;2.00;;
46767;SDS011;69007;48.978;18.066;2023-04-15T04:38:52;2.13;;;1.90;;
46767;SDS011;69007;48.978;18.066;2023-04-15T04:41:18;2.40;;;2.20;;
46767;SDS011;69007;48.978;18.066;2023-04-15T04:43:43;2.95;;;2.55;;
46767;SDS011;69007;48.978;18.066;2023-04-15T04:46:08;3.38;;;2.60;;
46767;SDS011;69007;48.978;18.066;2023-04-15T04:48:34;4.55;;;2.25;;
46767;SDS011;69007;48.978;18.066;2023-04-15T04:50:59;3.00;;;2.78;;
46767;SDS011;69007;48.978;18.066;2023-04-15T04:53:25;2.10;;;2.00;;
46767;SDS011;69007;48.978;18.066;2023-04-15T04:55:51;2.45;;;2.25;;
46767;SDS011;69007;48.978;18.066;2023-04-15T04:58:17;4.55;;;2.30;;
46767;SDS011;69007;48.978;18.066;2023-04-15T05:00:42;2.28;;;2.08;;
46767;SDS011;69007;48.978;18.066;2023-04-15T05:03:08;2.45;;;2.25;;
46767;SDS011;69007;48.978;18.066;2023-04-15T05:05:33;3.42;;;2.35;;
46767;SDS011;69007;48.978;18.066;2023-04-15T05:08:00;2.40;;;2.20;;
46767;SDS011;69007;48.978;18.066;2023-04-15T05:10:26;2.20;;;2.10;;
46767;SDS011;69007;48.978;18.066;2023-04-15T05:12:51;2.80;;;2.60;;
46767;SDS011;69007;48.978;18.066;2023-04-15T05:15:17;2.80;;;2.60;;
46767;SDS011;69007;48.978;18.066;2023-04-15T05:17:42;3.53;;;2.60;;
46767;SDS011;69007;48.978;18.066;2023-04-15T05:20:08;3.47;;;3.17;;
46767;SDS011;69007;48.978;18.066;2023-04-15T05:22:34;3.30;;;3.00;;
46767;SDS011;69007;48.978;18.066;2023-04-15T05:25:00;2.70;;;2.50;;
46767;SDS011;69007;48.978;18.066;2023-04-15T05:27:25;4.63;;;2.80;;
46767;SDS011;69007;48.978;18.066;2023-04-15T05:29:50;3.30;;;3.00;;
46767;SDS011;69007;48.978;18.066;2023-04-15T05:32:16;3.72;;;2.95;;
46767;SDS011;69007;48.978;18.066;2023-04-15T05:34:41;2.97;;;2.78;;
46767;SDS011;69007;48.978;18.066;2023-04-15T05:37:07;3.65;;;3.13;;
46767;SDS011;69007;48.978;18.066;2023-04-15T05:39:32;2.60;;;2.40;;
46767;SDS011;69007;48.978;18.066;2023-04-15T05:41:58;2.88;;;2.67;;
46767;SDS011;69007;48.978;18.066;2023-04-15T05:44:24;3.55;;;2.95;;
46767;SDS011;69007;48.978;18.066;2023-04-15T05:46:49;4.88;;;4.10;;
46767;SDS011;69007;48.978;18.066;2023-04-15T05:49:14;4.22;;;3.83;;
46767;SDS011;69007;48.978;18.066;2023-04-15T05:51:40;4.00;;;3.60;;
46767;SDS011;69007;48.978;18.066;2023-04-15T05:54:05;4.03;;;3.28;;
46767;SDS011;69007;48.978;18.066;2023-04-15T05:56:30;4.00;;;3.60;;
46767;SDS011;69007;48.978;18.066;2023-04-15T05:58:56;7.75;;;4.68;;
46767;SDS011;69007;48.978;18.066;2023-04-15T06:01:21;6.05;;;4.10;;
46767;SDS011;69007;48.978;18.066;2023-04-15T06:03:47;4.25;;;3.85;;
46767;SDS011;69007;48.978;18.066;2023-04-15T06:06:12;6.18;;;4.20;;
46767;SDS011;69007;48.978;18.066;2023-04-15T06:08:38;5.15;;;4.40;;
46767;SDS011;69007;48.978;18.066;2023-04-15T06:11:03;6.57;;;4.80;;
46767;SDS011;69007;48.978;18.066;2023-04-15T06:13:29;6.50;;;5.38;;
46767;SDS011;69007;48.978;18.066;2023-04-15T06:15:55;6.95;;;4.63;;
46767;SDS011;69007;48.978;18.066;2023-04-15T06:18:20;6.90;;;6.10;;
46767;SDS011;69007;48.978;18.066;2023-04-15T06:20:46;9.43;;;7.18;;
46767;SDS011;69007;48.978;18.066;2023-04-15T06:23:11;5.60;;;5.00;;
46767;SDS011;69007;48.978;18.066;2023-04-15T06:25:36;14.77;;;7.75;;
46767;SDS011;69007;48.978;18.066;2023-04-15T06:28:02;11.88;;;7.53;;
46767;SDS011;69007;48.978;18.066;2023-04-15T06:30:27;10.57;;;7.40;;
46767;SDS011;69007;48.978;18.066;2023-04-15T06:32:53;14.02;;;8.50;;
46767;SDS011;69007;48.978;18.066;2023-04-15T06:35:19;10.45;;;6.88;;
46767;SDS011;69007;48.978;18.066;2023-04-15T06:37:44;8.35;;;5.10;;
46767;SDS011;69007;48.978;18.066;2023-04-15T06:40:10;15.80;;;9.10;;
46767;SDS011;69007;48.978;18.066;2023-04-15T06:42:35;8.50;;;5.38;;
46767;SDS011;69007;48.978;18.066;2023-04-15T06:45:02;5.07;;;3.97;;
46767;SDS011;69007;48.978;18.066;2023-04-15T06:47:27;6.20;;;4.72;;
46767;SDS011;69007;48.978;18.066;2023-04-15T06:49:53;9.55;;;6.53;;
46767;SDS011;69007;48.978;18.066;2023-04-15T06:52:18;4.88;;;3.38;;
46767;SDS011;69007;48.978;18.066;2023-04-15T06:54:44;3.00;;;2.80;;
46767;SDS011;69007;48.978;18.066;2023-04-15T06:57:09;3.35;;;3.05;;
46767;SDS011;69007;48.978;18.066;2023-04-15T06:59:35;4.50;;;3.38;;
46767;SDS011;69007;48.978;18.066;2023-04-15T07:02:00;7.22;;;4.75;;
46767;SDS011;69007;48.978;18.066;2023-04-15T07:04:26;18.25;;;9.18;;
46767;SDS011;69007;48.978;18.066;2023-04-15T07:06:52;8.23;;;5.15;;
46767;SDS011;69007;48.978;18.066;2023-04-15T07:09:18;5.05;;;4.40;;
46767;SDS011;69007;48.978;18.066;2023-04-15T07:11:43;3.92;;;3.45;;
46767;SDS011;69007;48.978;18.066;2023-04-15T07:14:09;6.18;;;3.22;;
46767;SDS011;69007;48.978;18.066;2023-04-15T07:16:34;7.82;;;3.70;;
46767;SDS011;69007;48.978;18.066;2023-04-15T07:19:00;3.85;;;3.42;;
46767;SDS011;69007;48.978;18.066;2023-04-15T07:21:25;5.53;;;3.10;;
46767;SDS011;69007;48.978;18.066;2023-04-15T07:23:51;6.63;;;4.07;;
46767;SDS011;69007;48.978;18.066;2023-04-15T07:26:17;6.60;;;4.18;;
46767;SDS011;69007;48.978;18.066;2023-04-15T07:28:42;4.45;;;3.40;;
46767;SDS011;69007;48.978;18.066;2023-04-15T07:31:07;4.25;;;3.85;;
46767;SDS011;69007;48.978;18.066;2023-04-15T07:33:33;8.50;;;3.47;;
46767;SDS011;69007;48.978;18.066;2023-04-15T07:35:58;4.68;;;3.33;;
46767;SDS011;69007;48.978;18.066;2023-04-15T07:38:23;4.28;;;2.83;;
46767;SDS011;69007;48.978;18.066;2023-04-15T07:40:49;3.58;;;3.10;;
46767;SDS011;69007;48.978;18.066;2023-04-15T07:43:15;3.42;;;3.13;;
46767;SDS011;69007;48.978;18.066;2023-04-15T07:45:40;3.50;;;3.20;;
46767;SDS011;69007;48.978;18.066;2023-04-15T07:48:05;10.50;;;6.63;;
46767;SDS011;69007;48.978;18.066;2023-04-15T07:50:32;4.18;;;3.17;;
46767;SDS011;69007;48.978;18.066;2023-04-15T07:52:57;4.30;;;3.47;;
46767;SDS011;69007;48.978;18.066;2023-04-15T07:55:22;3.40;;;3.10;;
46767;SDS011;69007;48.978;18.066;2023-04-15T07:57:48;3.20;;;2.90;;
46767;SDS011;69007;48.978;18.066;2023-04-15T08:00:14;4.00;;;3.08;;
46767;SDS011;69007;48.978;18.066;2023-04-15T08:02:40;9.63;;;4.10;;
46767;SDS011;69007;48.978;18.066;2023-04-15T08:05:12;3.53;;;3.13;;
46767;SDS011;69007;48.978;18.066;2023-04-15T08:07:38;3.38;;;2.92;;
46767;SDS011;69007;48.978;18.066;2023-04-15T08:10:03;3.40;;;3.10;;
46767;SDS011;69007;48.978;18.066;2023-04-15T08:12:29;3.33;;;2.97;;
46767;SDS011;69007;48.978;18.066;2023-04-15T08:14:55;4.55;;;3.13;;
46767;SDS011;69007;48.978;18.066;2023-04-15T08:17:21;4.35;;;2.47;;
46767;SDS011;69007;48.978;18.066;2023-04-15T08:19:47;2.70;;;2.50;;
46767;SDS011;69007;48.978;18.066;2023-04-15T08:22:12;4.43;;;3.60;;
46767;SDS011;69007;48.978;18.066;2023-04-15T08:24:38;3.67;;;3.08;;
46767;SDS011;69007;48.978;18.066;2023-04-15T08:27:03;3.40;;;2.50;;
46767;SDS011;69007;48.978;18.066;2023-04-15T08:29:30;4.72;;;2.78;;
46767;SDS011;69007;48.978;18.066;2023-04-15T08:31:58;3.25;;;2.78;;
46767;SDS011;69007;48.978;18.066;2023-04-15T08:34:25;2.72;;;2.42;;
46767;SDS011;69007;48.978;18.066;2023-04-15T08:36:51;3.10;;;2.80;;
46767;SDS011;69007;48.978;18.066;2023-04-15T08:39:16;2.65;;;2.45;;
46767;SDS011;69007;48.978;18.066;2023-04-15T08:41:46;2.42;;;2.22;;
46767;SDS011;69007;48.978;18.066;2023-04-15T08:44:17;4.43;;;3.75;;
46767;SDS011;69007;48.978;18.066;2023-04-15T08:46:44;2.85;;;2.03;;
46767;SDS011;69007;48.978;18.066;2023-04-15T08:49:10;5.22;;;2.45;;
46767;SDS011;69007;48.978;18.066;2023-04-15T08:51:39;1.95;;;1.85;;
46767;SDS011;69007;48.978;18.066;2023-04-15T08:54:06;3.22;;;2.25;;
46767;SDS011;69007;48.978;18.066;2023-04-15T08:56:35;2.60;;;2.40;;
46767;SDS011;69007;48.978;18.066;2023-04-15T08:59:01;2.72;;;2.53;;
46767;SDS011;69007;48.978;18.066;2023-04-15T09:01:27;2.60;;;2.40;;
46767;SDS011;69007;48.978;18.066;2023-04-15T09:03:53;2.60;;;2.40;;
46767;SDS011;69007;48.978;18.066;2023-04-15T09:06:21;2.45;;;2.25;;
46767;SDS011;69007;48.978;18.066;2023-04-15T09:08:47;4.57;;;2.60;;
46767;SDS011;69007;48.978;18.066;2023-04-15T09:11:13;3.33;;;2.47;;
46767;SDS011;69007;48.978;18.066;2023-04-15T09:13:38;3.42;;;2.63;;
46767;SDS011;69007;48.978;18.066;2023-04-15T09:16:04;3.22;;;2.55;;
46767;SDS011;69007;48.978;18.066;2023-04-15T09:18:31;2.58;;;2.38;;
46767;SDS011;69007;48.978;18.066;2023-04-15T09:21:08;2.65;;;2.45;;
46767;SDS011;69007;48.978;18.066;2023-04-15T09:23:38;3.22;;;2.95;;
46767;SDS011;69007;48.978;18.066;2023-04-15T09:26:06;3.20;;;2.90;;
46767;SDS011;69007;48.978;18.066;2023-04-15T09:28:32;2.80;;;2.60;;
46767;SDS011;69007;48.978;18.066;2023-04-15T09:31:00;2.88;;;2.67;;
46767;SDS011;69007;48.978;18.066;2023-04-15T09:33:27;5.45;;;3.53;;
46767;SDS011;69007;48.978;18.066;2023-04-15T09:35:57;3.92;;;3.17;;
46767;SDS011;69007;48.978;18.066;2023-04-15T09:38:27;2.90;;;2.70;;
46767;SDS011;69007;48.978;18.066;2023-04-15T09:40:53;4.55;;;3.05;;
46767;SDS011;69007;48.978;18.066;2023-04-15T09:43:19;3.75;;;3.30;;
46767;SDS011;69007;48.978;18.066;2023-04-15T09:45:52;6.13;;;3.63;;
46767;SDS011;69007;48.978;18.066;2023-04-15T09:50:48;9.18;;;4.88;;
46767;SDS011;69007;48.978;18.066;2023-04-15T09:53:20;5.63;;;3.97;;
46767;SDS011;69007;48.978;18.066;2023-04-15T09:55:50;3.88;;;3.47;;
46767;SDS011;69007;48.978;18.066;2023-04-15T09:58:17;3.75;;;3.35;;
46767;SDS011;69007;48.978;18.066;2023-04-15T10:00:45;3.40;;;3.10;;
46767;SDS011;69007;48.978;18.066;2023-04-15T10:03:11;7.47;;;5.32;;
46767;SDS011;69007;48.978;18.066;2023-04-15T10:05:39;2.95;;;2.75;;
46767;SDS011;69007;48.978;18.066;2023-04-15T10:08:04;3.40;;;2.90;;
46767;SDS011;69007;48.978;18.066;2023-04-15T10:10:30;3.25;;;2.95;;
46767;SDS011;69007;48.978;18.066;2023-04-15T10:12:57;3.88;;;3.00;;
46767;SDS011;69007;48.978;18.066;2023-04-15T10:15:22;4.03;;;3.70;;
46767;SDS011;69007;48.978;18.066;2023-04-15T10:17:50;4.22;;;3.70;;
46767;SDS011;69007;48.978;18.066;2023-04-15T10:20:18;3.97;;;3.50;;
46767;SDS011;69007;48.978;18.066;2023-04-15T10:22:44;6.50;;;5.32;;
46767;SDS011;69007;48.978;18.066;2023-04-15T10:25:10;5.38;;;2.60;;
46767;SDS011;69007;48.978;18.066;2023-04-15T10:27:37;10.05;;;6.13;;
46767;SDS011;69007;48.978;18.066;2023-04-15T10:30:05;10.25;;;6.40;;
46767;SDS011;69007;48.978;18.066;2023-04-15T10:32:30;8.05;;;4.50;;
46767;SDS011;69007;48.978;18.066;2023-04-15T10:34:56;5.55;;;3.97;;
46767;SDS011;69007;48.978;18.066;2023-04-15T10:37:35;4.07;;;3.20;;
46767;SDS011;69007;48.978;18.066;2023-04-15T10:43:02;3.10;;;2.80;;
46767;SDS011;69007;48.978;18.066;2023-04-15T10:45:31;2.40;;;2.20;;
46767;SDS011;69007;48.978;18.066;2023-04-15T10:48:00;2.42;;;2.20;;
46767;SDS011;69007;48.978;18.066;2023-04-15T10:50:29;2.63;;;2.42;;
46767;SDS011;69007;48.978;18.066;2023-04-15T10:52:56;2.72;;;2.53;;
46767;SDS011;69007;48.978;18.066;2023-04-15T10:55:25;2.97;;;2.67;;
46767;SDS011;69007;48.978;18.066;2023-04-15T10:57:58;2.60;;;2.40;;
46767;SDS011;69007;48.978;18.066;2023-04-15T11:00:26;3.35;;;3.05;;
46767;SDS011;69007;48.978;18.066;2023-04-15T11:05:19;3.03;;;2.83;;
46767;SDS011;69007;48.978;18.066;2023-04-15T11:07:47;4.30;;;3.40;;
46767;SDS011;69007;48.978;18.066;2023-04-15T11:12:57;2.28;;;2.08;;
46767;SDS011;69007;48.978;18.066;2023-04-15T11:15:26;2.25;;;2.15;;
46767;SDS011;69007;48.978;18.066;2023-04-15T11:20:31;2.47;;;2.20;;
46767;SDS011;69007;48.978;18.066;2023-04-15T11:22:56;2.55;;;2.30;;
46767;SDS011;69007;48.978;18.066;2023-04-15T11:25:25;2.13;;;1.85;;
46767;SDS011;69007;48.978;18.066;2023-04-15T11:27:53;2.17;;;1.98;;
46767;SDS011;69007;48.978;18.066;2023-04-15T11:32:48;3.58;;;1.75;;
46767;SDS011;69007;48.978;18.066;2023-04-15T11:35:17;1.90;;;1.70;;
46767;SDS011;69007;48.978;18.066;2023-04-15T11:37:43;1.50;;;1.40;;
46767;SDS011;69007;48.978;18.066;2023-04-15T11:40:10;2.40;;;1.85;;
46767;SDS011;69007;48.978;18.066;2023-04-15T11:42:36;1.75;;;1.65;;
46767;SDS011;69007;48.978;18.066;2023-04-15T11:45:20;2.35;;;1.95;;
46767;SDS011;69007;48.978;18.066;2023-04-15T11:47:45;1.67;;;1.40;;
46767;SDS011;69007;48.978;18.066;2023-04-15T11:52:55;2.83;;;2.33;;
46767;SDS011;69007;48.978;18.066;2023-04-15T11:55:22;2.53;;;2.33;;
46767;SDS011;69007;48.978;18.066;2023-04-15T12:00:50;1.15;;;1.13;;
46767;SDS011;69007;48.978;18.066;2023-04-15T12:03:38;1.35;;;1.25;;
46767;SDS011;69007;48.978;18.066;2023-04-15T12:16:28;1.63;;;1.52;;
46767;SDS011;69007;48.978;18.066;2023-04-15T12:18:55;1.80;;;1.65;;
46767;SDS011;69007;48.978;18.066;2023-04-15T12:21:25;2.13;;;1.67;;
46767;SDS011;69007;48.978;18.066;2023-04-15T12:23:56;2.13;;;1.80;;
46767;SDS011;69007;48.978;18.066;2023-04-15T12:26:26;1.60;;;1.50;;
46767;SDS011;69007;48.978;18.066;2023-04-15T12:28:54;1.60;;;1.50;;
46767;SDS011;69007;48.978;18.066;2023-04-15T12:31:26;1.58;;;1.48;;
46767;SDS011;69007;48.978;18.066;2023-04-15T12:33:53;1.85;;;1.75;;
46767;SDS011;69007;48.978;18.066;2023-04-15T12:36:23;1.90;;;1.63;;
46767;SDS011;69007;48.978;18.066;2023-04-15T12:38:49;1.83;;;1.73;;
46767;SDS011;69007;48.978;18.066;2023-04-15T12:41:15;2.03;;;1.90;;
46767;SDS011;69007;48.978;18.066;2023-04-15T12:43:40;1.52;;;1.40;;
46767;SDS011;69007;48.978;18.066;2023-04-15T12:46:06;1.83;;;1.65;;
46767;SDS011;69007;48.978;18.066;2023-04-15T12:48:32;2.03;;;1.75;;
46767;SDS011;69007;48.978;18.066;2023-04-15T12:50:58;1.75;;;1.65;;
46767;SDS011;69007;48.978;18.066;2023-04-15T12:53:23;1.40;;;1.30;;
46767;SDS011;69007;48.978;18.066;2023-04-15T12:55:49;2.05;;;1.83;;
46767;SDS011;69007;48.978;18.066;2023-04-15T12:58:14;1.80;;;1.70;;
46767;SDS011;69007;48.978;18.066;2023-04-15T13:00:39;1.70;;;1.60;;
46767;SDS011;69007;48.978;18.066;2023-04-15T13:03:05;2.55;;;2.35;;
46767;SDS011;69007;48.978;18.066;2023-04-15T13:05:30;2.35;;;2.15;;
46767;SDS011;69007;48.978;18.066;2023-04-15T13:07:56;2.50;;;2.30;;
46767;SDS011;69007;48.978;18.066;2023-04-15T13:10:21;2.70;;;2.50;;
46767;SDS011;69007;48.978;18.066;2023-04-15T13:12:50;2.70;;;2.50;;
46767;SDS011;69007;48.978;18.066;2023-04-15T13:15:17;3.00;;;2.70;;
46767;SDS011;69007;48.978;18.066;2023-04-15T13:17:45;3.10;;;2.80;;
46767;SDS011;69007;48.978;18.066;2023-04-15T13:20:10;2.53;;;2.33;;
46767;SDS011;69007;48.978;18.066;2023-04-15T13:22:36;2.90;;;2.30;;
46767;SDS011;69007;48.978;18.066;2023-04-15T13:25:01;2.40;;;2.20;;
46767;SDS011;69007;48.978;18.066;2023-04-15T13:27:27;2.53;;;2.33;;
46767;SDS011;69007;48.978;18.066;2023-04-15T13:29:52;2.45;;;2.25;;
46767;SDS011;69007;48.978;18.066;2023-04-15T13:32:18;2.35;;;2.15;;
46767;SDS011;69007;48.978;18.066;2023-04-15T13:34:43;2.35;;;2.15;;
46767;SDS011;69007;48.978;18.066;2023-04-15T13:37:09;2.15;;;2.05;;
46767;SDS011;69007;48.978;18.066;2023-04-15T13:39:34;4.07;;;2.28;;
46767;SDS011;69007;48.978;18.066;2023-04-15T13:42:00;3.47;;;3.10;;
46767;SDS011;69007;48.978;18.066;2023-04-15T13:44:26;2.50;;;2.30;;
46767;SDS011;69007;48.978;18.066;2023-04-15T13:46:52;2.50;;;2.30;;
46767;SDS011;69007;48.978;18.066;2023-04-15T13:49:17;2.58;;;2.38;;
46767;SDS011;69007;48.978;18.066;2023-04-15T13:51:43;4.35;;;2.38;;
46767;SDS011;69007;48.978;18.066;2023-04-15T13:54:08;2.80;;;2.60;;
46767;SDS011;69007;48.978;18.066;2023-04-15T13:56:34;2.38;;;2.20;;
46767;SDS011;69007;48.978;18.066;2023-04-15T13:58:59;2.63;;;2.42;;
46767;SDS011;69007;48.978;18.066;2023-04-15T14:01:26;3.38;;;2.28;;
46767;SDS011;69007;48.978;18.066;2023-04-15T14:03:52;3.00;;;2.40;;
46767;SDS011;69007;48.978;18.066;2023-04-15T14:06:17;2.50;;;2.30;;
46767;SDS011;69007;48.978;18.066;2023-04-15T14:08:43;2.40;;;2.20;;
46767;SDS011;69007;48.978;18.066;2023-04-15T14:11:08;2.17;;;1.98;;
46767;SDS011;69007;48.978;18.066;2023-04-15T14:13:34;2.38;;;2.20;;
46767;SDS011;69007;48.978;18.066;2023-04-15T14:16:00;1.50;;;1.40;;
46767;SDS011;69007;48.978;18.066;2023-04-15T14:18:25;1.70;;;1.50;;
46767;SDS011;69007;48.978;18.066;2023-04-15T14:20:51;1.10;;;1.08;;
46767;SDS011;69007;48.978;18.066;2023-04-15T14:23:16;1.25;;;0.90;;
46767;SDS011;69007;48.978;18.066;2023-04-15T14:25:42;0.73;;;0.73;;
46767;SDS011;69007;48.978;18.066;2023-04-15T14:28:07;0.50;;;0.50;;
46767;SDS011;69007;48.978;18.066;2023-04-15T14:30:32;3.53;;;0.77;;
46767;SDS011;69007;48.978;18.066;2023-04-15T14:32:58;0.70;;;0.70;;
46767;SDS011;69007;48.978;18.066;2023-04-15T14:35:23;0.77;;;0.77;;
46767;SDS011;69007;48.978;18.066;2023-04-15T14:37:51;0.57;;;0.57;;
46767;SDS011;69007;48.978;18.066;2023-04-15T14:40:17;0.60;;;0.60;;
46767;SDS011;69007;48.978;18.066;2023-04-15T14:42:43;6.78;;;1.40;;
46767;SDS011;69007;48.978;18.066;2023-04-15T14:45:09;1.05;;;0.80;;
46767;SDS011;69007;48.978;18.066;2023-04-15T14:47:34;0.70;;;0.70;;
46767;SDS011;69007;48.978;18.066;2023-04-15T14:50:00;2.75;;;0.90;;
46767;SDS011;69007;48.978;18.066;2023-04-15T14:52:26;2.20;;;2.00;;
46767;SDS011;69007;48.978;18.066;2023-04-15T14:54:51;2.65;;;1.45;;
46767;SDS011;69007;48.978;18.066;2023-04-15T14:57:17;1.52;;;1.42;;
46767;SDS011;69007;48.978;18.066;2023-04-15T14:59:42;0.90;;;0.90;;